Time;durP1;ratioP1;P1;durP2;ratioP2;P2;SDS_P1;SDS_P2;PMS_P1;PMS_P2;Temp;Humidity;BMP_temperature;BMP_pressure;BME280_temperature;BME280_humidity;BME280_pressure;Samples;Min_cycle;Max_cycle;Signal;HPM_P1;HPM_P2
2021/12/17 00:00:43;;;;;;;32.83;19.35;;;8.10;99.90;;;;;;4429378;28;10000621;-72
2021/12/17 00:03:16;;;;;;;33.00;18.40;;;8.10;99.90;;;;;;5024580;28;20432;-73
2021/12/17 00:05:52;;;;;;;20.98;13.60;;;8.10;99.90;;;;;;5043980;28;20032;-72
2021/12/17 00:08:21;;;;;;;23.38;14.13;;;8.10;99.90;;;;;;5030576;28;20021;-72
2021/12/17 00:10:49;;;;;;;27.02;15.98;;;8.10;99.90;;;;;;5030216;28;20021;-72
2021/12/17 00:13:16;;;;;;;26.67;15.82;;;8.10;99.90;;;;;;5024215;28;20120;-72
2021/12/17 00:15:43;;;;;;;26.33;15.05;;;8.10;99.90;;;;;;5022972;28;20601;-72
2021/12/17 00:18:20;;;;;;;24.83;15.20;;;8.10;99.90;;;;;;5024393;28;20099;-72
2021/12/17 00:48:25;;;;;;;16.85;11.35;;;7.90;99.90;;;;;;5030456;28;20477;-72
2021/12/17 00:53:21;;;;;;;16.67;12.13;;;8.00;99.90;;;;;;5023437;28;20049;-73
2021/12/17 00:55:46;;;;;;;14.98;10.00;;;8.00;99.90;;;;;;5024296;28;20029;-72
2021/12/17 00:58:12;;;;;;;13.63;9.90;;;8.00;99.90;;;;;;5028242;28;20496;-72
2021/12/17 01:00:38;;;;;;;15.88;10.48;;;8.00;99.90;;;;;;5039549;28;20079;-72
2021/12/17 01:03:04;;;;;;;16.55;10.52;;;8.00;99.90;;;;;;5026878;28;20034;-72
2021/12/17 01:05:31;;;;;;;15.88;11.00;;;8.00;99.90;;;;;;5018370;28;20504;-72
2021/12/17 01:07:59;;;;;;;20.30;13.48;;;7.90;99.90;;;;;;5034153;28;20041;-72
2021/12/17 01:10:28;;;;;;;18.67;13.15;;;7.90;99.90;;;;;;5027245;28;20032;-72
2021/12/17 01:12:54;;;;;;;17.15;12.13;;;8.00;99.90;;;;;;5035816;28;20493;-72
2021/12/17 01:15:20;;;;;;;17.42;11.80;;;7.90;99.90;;;;;;5031497;28;20032;-72
2021/12/17 01:17:50;;;;;;;16.05;11.68;;;7.80;99.90;;;;;;5037483;28;20044;-72
2021/12/17 01:20:31;;;;;;;15.60;11.48;;;7.80;99.90;;;;;;5035394;28;20032;-72
2021/12/17 01:23:11;;;;;;;19.55;13.13;;;7.80;99.90;;;;;;5030305;28;20017;-72
2021/12/17 01:36:30;;;;;;;16.60;11.75;;;8.00;99.90;;;;;;5035941;28;20036;-72
2021/12/17 01:44:10;;;;;;;19.92;13.70;;;7.90;99.90;;;;;;5037848;28;20040;-72
2021/12/17 01:46:38;;;;;;;20.10;13.85;;;7.80;99.90;;;;;;5033915;28;20114;-72
2021/12/17 01:59:38;;;;;;;25.50;15.45;;;7.60;99.90;;;;;;5030153;28;20104;-73
2021/12/17 02:02:07;;;;;;;23.70;14.50;;;7.60;99.90;;;;;;5034448;28;20503;-73
2021/12/17 02:04:35;;;;;;;23.52;15.30;;;7.60;99.90;;;;;;5031650;28;20080;-73
2021/12/17 02:07:02;;;;;;;20.45;14.00;;;7.50;99.90;;;;;;5051345;28;20025;-73
2021/12/17 02:33:25;;;;;;;25.38;15.57;;;7.60;99.90;;;;;;5026852;28;20037;-72
2021/12/17 02:35:51;;;;;;;24.00;15.15;;;7.50;99.90;;;;;;5025321;28;20101;-73
2021/12/17 02:38:17;;;;;;;24.90;15.25;;;7.50;99.90;;;;;;5021750;28;20172;-73
2021/12/17 02:46:26;;;;;;;21.83;13.85;;;7.50;99.90;;;;;;5033010;28;20048;-72
2021/12/17 02:48:53;;;;;;;26.17;14.90;;;7.50;99.90;;;;;;5019398;28;20087;-72
2021/12/17 02:51:22;;;;;;;26.10;15.57;;;7.50;99.90;;;;;;5032594;28;20041;-72
2021/12/17 02:53:48;;;;;;;22.95;15.18;;;7.50;99.90;;;;;;5035437;28;20112;-73
2021/12/17 02:56:14;;;;;;;25.35;15.40;;;7.50;99.90;;;;;;5020446;28;20732;-72
2021/12/17 02:58:40;;;;;;;29.45;15.50;;;7.50;99.90;;;;;;5026511;28;20041;-73
2021/12/17 03:01:08;;;;;;;25.70;15.40;;;7.50;99.90;;;;;;5029103;28;20563;-73
2021/12/17 03:03:37;;;;;;;27.50;16.10;;;7.50;99.90;;;;;;5022896;28;20030;-73
2021/12/17 03:06:04;;;;;;;28.67;17.10;;;7.40;99.90;;;;;;5033280;28;20064;-72
2021/12/17 03:08:30;;;;;;;25.05;16.25;;;7.40;99.90;;;;;;5027605;28;20507;-73
2021/12/17 03:10:57;;;;;;;25.83;16.52;;;7.40;99.90;;;;;;5047153;28;20547;-73
2021/12/17 03:13:24;;;;;;;25.63;14.73;;;7.40;99.90;;;;;;5023408;28;20025;-72
2021/12/17 03:16:03;;;;;;;21.58;13.75;;;7.40;99.90;;;;;;5035674;28;21090;-73
2021/12/17 03:18:59;;;;;;;22.10;13.55;;;7.30;99.90;;;;;;5028401;28;20083;-72
2021/12/17 03:24:09;;;;;;;23.50;14.48;;;7.30;99.90;;;;;;5014924;28;20504;-73
2021/12/17 03:26:36;;;;;;;24.75;14.90;;;7.30;99.90;;;;;;5033565;28;20127;-73
2021/12/17 03:29:07;;;;;;;26.40;14.90;;;7.30;99.90;;;;;;5020001;28;20066;-73
2021/12/17 03:31:34;;;;;;;23.90;13.60;;;7.40;99.90;;;;;;5017099;28;20050;-72
2021/12/17 03:36:36;;;;;;;26.73;14.43;;;7.30;99.90;;;;;;5023733;28;20536;-72
2021/12/17 03:39:02;;;;;;;28.13;14.98;;;7.30;99.90;;;;;;5024387;28;20124;-72
2021/12/17 03:41:36;;;;;;;25.15;14.82;;;7.30;99.90;;;;;;5016000;28;20117;-72
2021/12/17 03:44:02;;;;;;;26.88;15.38;;;7.30;99.90;;;;;;5026714;28;20057;-73
2021/12/17 03:46:28;;;;;;;24.30;13.55;;;7.30;99.90;;;;;;5044403;28;20032;-72
2021/12/17 03:48:54;;;;;;;23.65;13.98;;;7.30;99.90;;;;;;5021880;28;20038;-73
2021/12/17 03:51:19;;;;;;;25.70;13.85;;;7.30;99.90;;;;;;5036714;28;20444;-73
2021/12/17 03:53:49;;;;;;;24.60;14.20;;;7.40;99.90;;;;;;5026409;28;20025;-73
2021/12/17 03:56:15;;;;;;;21.92;13.40;;;7.40;99.90;;;;;;5029672;28;20449;-73
2021/12/17 03:58:41;;;;;;;25.17;14.23;;;7.50;99.90;;;;;;5029217;28;20028;-73
2021/12/17 04:01:07;;;;;;;25.15;14.98;;;7.50;99.90;;;;;;5034915;28;20032;-73
2021/12/17 04:03:33;;;;;;;25.38;14.32;;;7.50;99.90;;;;;;5020393;28;20033;-72
2021/12/17 04:05:59;;;;;;;27.35;14.38;;;7.60;99.90;;;;;;5024912;28;20108;-72
2021/12/17 04:08:25;;;;;;;27.38;14.88;;;7.60;99.90;;;;;;5026791;28;20596;-73
2021/12/17 04:10:53;;;;;;;26.52;14.70;;;7.60;99.90;;;;;;5038398;28;20036;-72
2021/12/17 04:15:55;;;;;;;29.02;14.90;;;7.60;99.90;;;;;;5023741;28;20028;-72
2021/12/17 04:18:20;;;;;;;25.48;14.07;;;7.60;99.90;;;;;;5021179;28;20026;-72
2021/12/17 04:20:46;;;;;;;24.67;14.45;;;7.50;99.90;;;;;;5014346;28;20367;-72
2021/12/17 04:23:12;;;;;;;25.85;14.75;;;7.50;99.90;;;;;;5028107;28;20710;-72
2021/12/17 04:25:37;;;;;;;25.65;14.02;;;7.50;99.90;;;;;;5031342;28;20048;-72
2021/12/17 04:28:04;;;;;;;26.23;14.65;;;7.50;99.90;;;;;;5031060;28;20021;-73
2021/12/17 04:30:31;;;;;;;25.30;14.43;;;7.40;99.90;;;;;;5026560;28;20021;-72
2021/12/17 04:32:56;;;;;;;24.23;13.75;;;7.40;99.90;;;;;;5018503;28;20029;-72
2021/12/17 04:35:22;;;;;;;25.70;14.40;;;7.30;99.90;;;;;;5029115;28;20465;-72
2021/12/17 04:37:48;;;;;;;26.50;14.40;;;7.30;99.90;;;;;;5027879;28;20040;-72
2021/12/17 04:40:15;;;;;;;26.02;14.32;;;7.30;99.90;;;;;;5027070;28;20029;-71
2021/12/17 04:43:09;;;;;;;27.30;15.57;;;7.30;99.90;;;;;;5029493;28;20117;-73
2021/12/17 04:45:40;;;;;;;25.80;14.18;;;7.30;99.90;;;;;;5016309;28;20033;-73
2021/12/17 04:59:05;;;;;;;29.13;15.65;;;7.50;99.90;;;;;;5034404;28;20101;-73
2021/12/17 05:01:32;;;;;;;29.33;14.75;;;7.50;99.90;;;;;;5022788;28;20401;-72
2021/12/17 05:03:58;;;;;;;27.45;14.48;;;7.60;99.90;;;;;;5029768;28;20037;-73
2021/12/17 05:06:28;;;;;;;26.48;14.27;;;7.50;99.90;;;;;;5026848;28;20030;-73
2021/12/17 05:08:58;;;;;;;28.92;14.65;;;7.50;99.90;;;;;;5025831;28;20090;-73
2021/12/17 05:11:39;;;;;;;26.13;13.95;;;7.50;99.90;;;;;;5026178;28;20058;-73
2021/12/17 05:19:47;;;;;;;24.55;13.00;;;7.40;99.90;;;;;;5037728;28;20163;-72
2021/12/17 05:22:13;;;;;;;24.90;13.65;;;7.50;99.90;;;;;;5022259;28;20025;-72
2021/12/17 05:24:39;;;;;;;24.45;13.02;;;7.50;99.90;;;;;;5014940;28;20060;-73
2021/12/17 05:27:05;;;;;;;24.88;13.13;;;7.50;99.90;;;;;;5021221;28;20490;-72
2021/12/17 05:29:31;;;;;;;21.77;12.88;;;7.50;99.90;;;;;;5018464;28;20037;-73
2021/12/17 05:31:56;;;;;;;21.90;12.32;;;7.50;99.90;;;;;;5024702;28;20057;-73
2021/12/17 05:34:22;;;;;;;20.88;12.25;;;7.40;99.90;;;;;;5023283;28;20036;-74
2021/12/17 05:36:48;;;;;;;24.17;12.85;;;7.40;99.90;;;;;;5030421;28;20029;-74
2021/12/17 05:39:13;;;;;;;22.42;12.80;;;7.40;99.90;;;;;;5016666;28;20061;-73
2021/12/17 05:41:39;;;;;;;23.67;12.90;;;7.40;99.90;;;;;;5029049;28;20021;-73
2021/12/17 05:44:04;;;;;;;24.58;13.65;;;7.50;99.90;;;;;;5021511;28;20044;-74
2021/12/17 05:46:49;;;;;;;23.27;13.05;;;7.50;99.90;;;;;;5038793;28;20043;-73
2021/12/17 05:49:23;;;;;;;23.30;13.15;;;7.50;99.90;;;;;;5027923;28;20029;-73
2021/12/17 05:51:50;;;;;;;23.85;13.00;;;7.60;99.90;;;;;;5019828;28;20408;-73
2021/12/17 05:54:16;;;;;;;25.58;13.50;;;7.50;99.90;;;;;;5025771;28;20425;-73
2021/12/17 05:56:42;;;;;;;22.67;12.20;;;7.60;99.90;;;;;;5022933;28;20473;-73
2021/12/17 05:59:09;;;;;;;22.20;12.63;;;7.60;99.90;;;;;;5028964;28;20115;-73
2021/12/17 06:01:35;;;;;;;26.70;14.27;;;7.60;99.90;;;;;;5024201;28;20022;-73
2021/12/17 06:04:00;;;;;;;21.33;11.95;;;7.60;99.90;;;;;;5030522;28;20028;-73
2021/12/17 06:06:35;;;;;;;23.40;13.45;;;7.60;99.90;;;;;;5023352;28;20033;-74
2021/12/17 06:09:05;;;;;;;21.40;12.77;;;7.60;99.90;;;;;;5038709;28;20031;-74
2021/12/17 06:11:31;;;;;;;25.88;13.43;;;7.60;99.90;;;;;;5031495;28;20057;-74
2021/12/17 06:13:56;;;;;;;22.50;12.68;;;7.60;99.90;;;;;;5032274;28;20385;-73
2021/12/17 06:16:22;;;;;;;29.20;14.52;;;7.60;99.90;;;;;;5022794;28;20036;-74
2021/12/17 06:18:47;;;;;;;25.92;13.85;;;7.60;99.90;;;;;;5022276;28;20447;-73
2021/12/17 06:21:13;;;;;;;23.42;13.20;;;7.60;99.90;;;;;;5024478;28;20022;-74
2021/12/17 06:23:39;;;;;;;21.25;13.23;;;7.60;99.90;;;;;;5018025;28;20752;-73
2021/12/17 06:26:05;;;;;;;20.98;11.85;;;7.60;99.90;;;;;;5037608;28;20025;-73
2021/12/17 06:28:31;;;;;;;23.15;13.05;;;7.50;99.90;;;;;;4682844;28;9999818;-74
2021/12/17 06:30:57;;;;;;;20.13;11.82;;;7.50;99.90;;;;;;5025982;28;20053;-73
2021/12/17 06:33:22;;;;;;;20.55;11.73;;;7.40;99.90;;;;;;5022586;28;20030;-73
2021/12/17 06:35:48;;;;;;;19.70;11.48;;;7.40;99.90;;;;;;5022770;28;20065;-74
2021/12/17 06:38:14;;;;;;;19.33;11.90;;;7.30;99.90;;;;;;5025748;28;20033;-73
2021/12/17 06:40:40;;;;;;;21.15;12.15;;;7.30;99.90;;;;;;5019628;28;20034;-73
2021/12/17 06:43:06;;;;;;;20.45;11.75;;;7.30;99.90;;;;;;5017694;28;20540;-72
2021/12/17 06:45:49;;;;;;;20.35;11.43;;;7.20;99.90;;;;;;5035039;28;20025;-72
2021/12/17 06:48:17;;;;;;;19.77;11.15;;;7.20;99.90;;;;;;5018751;28;20042;-73
2021/12/17 06:56:59;;;;;;;23.33;11.98;;;7.20;99.90;;;;;;5039077;28;20037;-73
2021/12/17 06:59:09;;;;;;;21.08;12.25;;;7.30;99.90;;;;;;5023608;28;20489;-73
2021/12/17 07:07:53;;;;;;;19.48;11.23;;;7.40;99.90;;;;;;5030789;28;20110;-74
2021/12/17 07:10:15;;;;;;;20.70;12.00;;;7.30;99.90;;;;;;5031707;28;20068;-73
2021/12/17 07:23:36;;;;;;;18.98;10.43;;;7.20;99.90;;;;;;5022146;28;20057;-73
2021/12/17 07:34:09;;;;;;;21.63;11.07;;;7.20;99.90;;;;;;5028932;28;20050;-73
2021/12/17 07:38:35;;;;;;;20.48;11.43;;;7.10;99.90;;;;;;5040928;28;20082;-73
2021/12/17 07:39:26;;;;;;;22.80;11.95;;;7.10;99.90;;;;;;5024151;28;20030;-73
2021/12/17 07:41:52;;;;;;;21.35;12.30;;;7.20;99.90;;;;;;5030458;28;20041;-73
2021/12/17 07:44:17;;;;;;;22.30;12.63;;;7.10;99.90;;;;;;5029900;28;20516;-73
2021/12/17 07:46:43;;;;;;;25.00;13.38;;;7.10;99.90;;;;;;5033491;28;20036;-72
2021/12/17 07:49:09;;;;;;;20.55;11.77;;;7.20;99.90;;;;;;5035182;28;20412;-74
2021/12/17 07:51:35;;;;;;;24.63;13.93;;;7.10;99.90;;;;;;5034377;28;20051;-73
2021/12/17 07:54:01;;;;;;;25.23;13.65;;;7.20;99.90;;;;;;5032948;28;20043;-73
2021/12/17 07:56:30;;;;;;;23.35;13.85;;;7.20;99.90;;;;;;5021786;28;20117;-73
2021/12/17 07:58:56;;;;;;;22.85;14.02;;;7.30;99.90;;;;;;5024673;28;20032;-73
2021/12/17 08:01:22;;;;;;;23.35;13.45;;;7.20;99.90;;;;;;5034745;28;20235;-73
2021/12/17 08:03:48;;;;;;;22.95;13.00;;;7.30;99.90;;;;;;5027449;28;20035;-73
2021/12/17 08:06:13;;;;;;;24.20;13.20;;;7.20;99.90;;;;;;5034868;28;20034;-73
2021/12/17 08:08:39;;;;;;;24.25;13.73;;;7.20;99.90;;;;;;5028782;28;20033;-73
2021/12/17 08:11:06;;;;;;;26.27;14.70;;;7.20;99.90;;;;;;5015338;28;20029;-73
2021/12/17 08:13:34;;;;;;;35.30;17.83;;;7.20;99.90;;;;;;5022905;28;20033;-73
2021/12/17 08:24:44;;;;;;;30.88;16.73;;;7.20;99.90;;;;;;5020702;28;20500;-73
2021/12/17 08:29:43;;;;;;;;;;;7.20;99.90;;;;;;5018811;28;20029;-73
2021/12/17 08:32:10;;;;;;;31.65;16.17;;;7.30;99.90;;;;;;5017371;28;19943;-73
2021/12/17 08:34:36;;;;;;;32.47;16.98;;;;;;;;;;5016405;28;20039;-73
2021/12/17 08:37:03;;;;;;;32.67;16.92;;;7.50;99.90;;;;;;5022565;28;20116;-73
2021/12/17 08:39:29;;;;;;;33.08;17.42;;;7.40;99.90;;;;;;5025175;28;20095;-72
2021/12/17 08:41:55;;;;;;;34.85;17.63;;;7.50;99.90;;;;;;5028442;28;20022;-73
2021/12/17 08:44:22;;;;;;;36.58;18.95;;;7.50;99.90;;;;;;5032235;28;20397;-73
2021/12/17 08:46:48;;;;;;;59.92;30.35;;;7.40;99.90;;;;;;5019892;28;20029;-72
2021/12/17 08:49:14;;;;;;;57.15;28.30;;;7.50;99.90;;;;;;5020397;28;20033;-73
2021/12/17 08:51:41;;;;;;;45.97;24.98;;;7.40;99.90;;;;;;5023284;28;20056;-73
2021/12/17 08:54:07;;;;;;;41.50;21.00;;;7.40;99.90;;;;;;5034151;28;20029;-73
2021/12/17 08:56:35;;;;;;;43.75;21.23;;;7.50;99.90;;;;;;5020059;28;20033;-73
2021/12/17 08:59:04;;;;;;;40.95;19.85;;;7.50;99.90;;;;;;5019715;28;20052;-72
2021/12/17 09:01:29;;;;;;;40.63;19.77;;;7.50;99.90;;;;;;5033785;28;20109;-72
2021/12/17 09:03:55;;;;;;;36.45;18.80;;;7.40;99.90;;;;;;5029546;28;20041;-72
2021/12/17 09:06:26;;;;;;;38.90;18.85;;;7.40;99.90;;;;;;5021429;28;20177;-72
2021/12/17 09:08:55;;;;;;;37.83;19.02;;;7.40;99.90;;;;;;5014192;28;20068;-72
2021/12/17 09:11:23;;;;;;;37.63;18.90;;;7.40;99.90;;;;;;5017134;28;20117;-72
2021/12/17 09:13:50;;;;;;;36.97;18.73;;;7.40;99.90;;;;;;5021558;28;20029;-73
2021/12/17 09:16:17;;;;;;;45.63;19.27;;;7.40;99.90;;;;;;5022208;28;20029;-73
2021/12/17 09:18:45;;;;;;;44.65;21.70;;;7.40;99.90;;;;;;5021528;28;20524;-72
2021/12/17 09:21:10;;;;;;;42.78;20.80;;;7.40;99.90;;;;;;5023670;28;20397;-72
2021/12/17 09:23:36;;;;;;;49.35;21.30;;;7.40;99.90;;;;;;5025484;28;20032;-72
2021/12/17 09:26:01;;;;;;;40.58;20.20;;;7.40;99.90;;;;;;5026188;28;20034;-73
2021/12/17 09:28:29;;;;;;;40.92;19.48;;;7.40;99.90;;;;;;5010085;28;20694;-73
2021/12/17 09:30:54;;;;;;;43.10;19.88;;;7.40;99.90;;;;;;5017569;28;20042;-73
2021/12/17 09:33:20;;;;;;;37.17;19.20;;;7.40;99.90;;;;;;5021210;28;20083;-73
2021/12/17 09:35:46;;;;;;;47.58;20.85;;;7.40;99.90;;;;;;5028072;28;20107;-73
2021/12/17 09:38:11;;;;;;;45.00;19.50;;;7.30;99.90;;;;;;5019581;28;20435;-73
2021/12/17 09:40:37;;;;;;;48.50;24.65;;;7.40;99.90;;;;;;5022456;28;20032;-73
2021/12/17 09:43:03;;;;;;;47.58;24.65;;;7.40;99.90;;;;;;5023655;28;20022;-73
2021/12/17 09:45:29;;;;;;;45.10;22.08;;;7.40;99.90;;;;;;5028714;28;20074;-73
2021/12/17 09:47:56;;;;;;;43.88;19.50;;;7.40;99.90;;;;;;5040362;28;20045;-73
2021/12/17 09:50:22;;;;;;;42.05;18.88;;;7.40;99.90;;;;;;5025354;28;20030;-73
2021/12/17 09:52:48;;;;;;;39.60;18.17;;;7.50;99.90;;;;;;5031118;28;20180;-73
2021/12/17 09:55:14;;;;;;;51.70;25.65;;;7.40;99.90;;;;;;5021171;28;20033;-73
2021/12/17 09:57:40;;;;;;;49.22;22.20;;;7.40;99.90;;;;;;5027934;28;20035;-73
2021/12/17 10:00:13;;;;;;;37.80;18.83;;;7.40;99.90;;;;;;5032125;28;20551;-73
2021/12/17 10:02:41;;;;;;;44.08;20.38;;;7.40;99.90;;;;;;5025992;28;20057;-74
2021/12/17 10:05:06;;;;;;;44.80;21.00;;;7.40;99.90;;;;;;5031816;28;20125;-73
2021/12/17 10:07:33;;;;;;;42.60;20.17;;;7.40;99.90;;;;;;5034613;28;20100;-73
2021/12/17 10:10:03;;;;;;;43.15;19.63;;;7.50;99.90;;;;;;5025179;28;20383;-74
2021/12/17 10:12:34;;;;;;;47.33;20.02;;;7.50;99.90;;;;;;5032395;28;20113;-74
2021/12/17 10:15:10;;;;;;;41.95;19.17;;;7.50;99.90;;;;;;5024883;28;20444;-74
2021/12/17 10:17:51;;;;;;;44.70;22.17;;;7.60;99.90;;;;;;5014045;28;20492;-74
2021/12/17 10:20:17;;;;;;;43.17;19.25;;;7.60;99.90;;;;;;5020967;28;20029;-72
2021/12/17 10:22:58;;;;;;;38.70;18.70;;;7.60;99.90;;;;;;5027454;28;20105;-73
2021/12/17 10:25:27;;;;;;;39.65;18.80;;;7.60;99.90;;;;;;5026171;28;20030;-73
2021/12/17 10:28:00;;;;;;;44.25;23.17;;;7.60;99.90;;;;;;5023827;28;20033;-74
2021/12/17 10:30:27;;;;;;;43.63;19.48;;;7.60;99.90;;;;;;5030018;28;20109;-74
2021/12/17 10:32:56;;;;;;;42.00;18.13;;;7.60;99.90;;;;;;5038779;28;20056;-74
2021/12/17 10:35:27;;;;;;;43.45;18.77;;;7.60;99.90;;;;;;5035710;28;20034;-73
2021/12/17 10:37:57;;;;;;;39.10;19.27;;;7.70;99.90;;;;;;5024088;28;20025;-74
2021/12/17 10:40:30;;;;;;;40.92;19.33;;;7.60;99.90;;;;;;5035968;28;20048;-74
2021/12/17 10:43:05;;;;;;;42.00;18.02;;;7.60;99.90;;;;;;5031375;28;20041;-74
2021/12/17 10:45:41;;;;;;;43.70;19.60;;;7.60;99.90;;;;;;5026179;28;20033;-73
2021/12/17 10:48:23;;;;;;;42.45;18.02;;;7.60;99.90;;;;;;5033379;28;20030;-74
2021/12/17 10:50:51;;;;;;;41.25;18.52;;;7.60;99.90;;;;;;5028598;28;20051;-73
2021/12/17 10:53:22;;;;;;;40.17;18.77;;;7.60;99.90;;;;;;5038539;28;20042;-74
2021/12/17 10:55:47;;;;;;;39.47;17.60;;;7.60;99.90;;;;;;5038644;28;20037;-74
2021/12/17 10:58:13;;;;;;;43.42;17.48;;;7.70;99.90;;;;;;5035733;28;20074;-73
2021/12/17 11:00:53;;;;;;;44.25;18.63;;;7.60;99.90;;;;;;5046347;28;20063;-73
2021/12/17 11:03:19;;;;;;;40.85;18.20;;;7.70;99.90;;;;;;5027418;28;20029;-74
2021/12/17 11:05:45;;;;;;;45.00;19.58;;;7.60;99.90;;;;;;4687468;28;10000319;-75
2021/12/17 11:08:31;;;;;;;49.10;20.05;;;7.70;99.90;;;;;;5020268;28;20036;-74
2021/12/17 11:11:10;;;;;;;42.40;19.55;;;7.70;99.90;;;;;;5014680;28;20061;-73
2021/12/17 11:13:36;;;;;;;40.90;18.65;;;7.70;99.90;;;;;;5031366;28;20425;-74
2021/12/17 11:16:03;;;;;;;39.80;18.73;;;7.70;99.90;;;;;;5015434;28;20293;-75
2021/12/17 11:18:29;;;;;;;41.92;18.83;;;7.70;99.90;;;;;;5026607;28;20026;-75
2021/12/17 11:20:56;;;;;;;39.80;18.52;;;7.70;99.90;;;;;;5031014;28;20079;-75
2021/12/17 11:23:23;;;;;;;36.72;17.55;;;7.70;99.90;;;;;;5030189;28;20095;-74
2021/12/17 11:25:50;;;;;;;38.25;17.75;;;7.70;99.90;;;;;;5027337;28;20033;-74
2021/12/17 11:28:16;;;;;;;41.75;18.15;;;7.70;99.90;;;;;;5025671;28;20041;-74
2021/12/17 11:30:46;;;;;;;39.30;18.33;;;7.80;99.90;;;;;;5028129;28;20587;-74
2021/12/17 11:33:12;;;;;;;34.25;16.85;;;7.80;99.90;;;;;;5018247;28;20056;-74
2021/12/17 11:35:42;;;;;;;30.98;15.48;;;7.90;99.90;;;;;;5039129;28;20032;-74
2021/12/17 11:38:15;;;;;;;29.60;14.43;;;8.00;99.90;;;;;;5023511;28;20037;-74
2021/12/17 11:40:49;;;;;;;30.95;14.52;;;8.10;99.90;;;;;;5043346;28;20026;-75
2021/12/17 11:43:38;;;;;;;29.77;14.32;;;8.20;99.90;;;;;;5029988;28;20114;-75
2021/12/17 11:46:12;;;;;;;28.77;14.25;;;8.20;99.90;;;;;;5026998;28;20034;-74
2021/12/17 11:48:38;;;;;;;25.00;12.52;;;8.30;99.90;;;;;;5031291;28;20040;-74
2021/12/17 11:51:16;;;;;;;28.02;13.90;;;8.30;99.90;;;;;;5027356;28;20038;-74
2021/12/17 11:53:43;;;;;;;28.23;13.57;;;8.40;99.90;;;;;;5022210;28;20037;-74
2021/12/17 11:56:08;;;;;;;31.40;14.70;;;8.40;99.90;;;;;;5024278;28;20025;-75
2021/12/17 11:58:53;;;;;;;30.27;14.82;;;8.40;99.90;;;;;;5026613;28;20044;-73
2021/12/17 12:01:51;;;;;;;32.47;15.65;;;8.50;99.90;;;;;;5019253;28;20036;-73
2021/12/17 12:04:21;;;;;;;30.75;15.07;;;8.50;99.90;;;;;;5024627;28;20033;-74
2021/12/17 12:07:10;;;;;;;30.92;15.10;;;8.50;99.90;;;;;;5026380;28;20045;-73
2021/12/17 12:10:11;;;;;;;31.48;15.45;;;8.50;99.90;;;;;;5017459;28;20034;-73
2021/12/17 12:12:46;;;;;;;26.95;14.52;;;8.60;99.90;;;;;;5019906;28;20041;-72
2021/12/17 12:15:20;;;;;;;30.25;15.65;;;8.60;99.90;;;;;;5025156;28;20021;-72
2021/12/17 12:17:58;;;;;;;29.83;15.10;;;8.50;99.90;;;;;;5026480;28;20145;-72
2021/12/17 12:20:50;;;;;;;33.75;16.35;;;8.50;99.90;;;;;;5017467;28;20033;-72
2021/12/17 12:23:20;;;;;;;32.78;15.98;;;8.50;99.90;;;;;;5024670;28;20049;-73
2021/12/17 12:26:11;;;;;;;36.25;17.13;;;8.50;99.90;;;;;;5018599;28;20045;-73
2021/12/17 12:28:53;;;;;;;35.70;16.65;;;8.50;99.90;;;;;;5026127;28;20045;-73
2021/12/17 12:31:24;;;;;;;35.58;16.25;;;8.50;99.90;;;;;;5039212;28;20735;-73
2021/12/17 12:34:03;;;;;;;34.80;17.17;;;;;;;;;;5029320;28;20496;-73
2021/12/17 12:36:49;;;;;;;34.72;17.05;;;;;;;;;;5022998;28;20100;-72
2021/12/17 12:39:16;;;;;;;35.05;16.25;;;;;;;;;;5030572;28;20056;-72
2021/12/17 12:41:44;;;;;;;19.67;9.93;;;;;;;;;;5035136;28;20147;-72
2021/12/17 12:44:10;;;;;;;17.27;9.27;;;;;;;;;;5035325;28;20899;-72
2021/12/17 12:46:50;;;;;;;15.98;8.35;;;;;;;;;;5014290;28;20030;-72
2021/12/17 12:49:34;;;;;;;7.45;4.95;;;;;;;;;;5034166;28;20033;-72
2021/12/17 12:52:19;;;;;;;5.88;3.83;;;;;;;;;;5021421;28;20026;-72
2021/12/17 12:54:48;;;;;;;6.25;3.72;;;;;;;;;;5025339;28;20440;-73
2021/12/17 12:57:26;;;;;;;5.15;3.33;;;8.40;99.90;;;;;;5038704;28;20030;-72
2021/12/17 12:59:54;;;;;;;5.15;3.22;;;8.40;99.90;;;;;;5033230;28;20135;-73
2021/12/17 13:02:21;;;;;;;4.93;3.35;;;8.40;99.90;;;;;;5022783;28;20582;-73
2021/12/17 13:04:47;;;;;;;5.20;3.60;;;8.40;99.90;;;;;;5012441;28;20059;-72
2021/12/17 13:07:15;;;;;;;5.47;2.58;;;8.40;99.90;;;;;;5024106;28;20432;-73
2021/12/17 13:09:44;;;;;;;3.83;2.30;;;8.40;99.90;;;;;;5026047;28;20029;-73
2021/12/17 13:12:10;;;;;;;4.65;1.90;;;8.40;99.90;;;;;;5015769;28;20149;-73
2021/12/17 13:14:46;;;;;;;2.03;1.77;;;8.30;99.90;;;;;;5021592;28;20125;-72
2021/12/17 13:17:51;;;;;;;1.63;1.52;;;8.30;99.90;;;;;;5034590;28;20026;-73
2021/12/17 13:20:41;;;;;;;2.13;1.42;;;8.30;99.90;;;;;;5024693;28;20034;-73
2021/12/17 13:23:12;;;;;;;1.02;0.93;;;8.20;99.90;;;;;;5015773;28;20038;-73
2021/12/17 13:25:38;;;;;;;1.88;1.00;;;8.20;99.90;;;;;;5018717;28;20041;-73
2021/12/17 13:28:04;;;;;;;1.33;1.13;;;8.20;99.90;;;;;;5022634;28;20078;-73
2021/12/17 13:30:30;;;;;;;1.20;1.05;;;8.20;99.90;;;;;;5023567;28;20029;-73
2021/12/17 13:32:55;;;;;;;2.17;1.08;;;8.10;99.90;;;;;;5016387;28;20103;-73
2021/12/17 13:35:26;;;;;;;1.00;0.90;;;8.20;99.90;;;;;;5015598;28;20030;-73
2021/12/17 13:37:56;;;;;;;1.35;1.00;;;8.20;99.90;;;;;;5008484;28;20037;-73
2021/12/17 13:40:23;;;;;;;1.35;1.13;;;8.20;99.90;;;;;;5012097;28;20038;-72
2021/12/17 13:42:49;;;;;;;0.93;0.90;;;8.20;99.90;;;;;;5020638;28;20037;-71
2021/12/17 13:45:17;;;;;;;1.65;1.20;;;8.10;99.90;;;;;;5024835;28;20657;-73
2021/12/17 13:47:57;;;;;;;1.20;1.10;;;8.10;99.90;;;;;;5022871;28;20096;-72
2021/12/17 13:50:26;;;;;;;1.35;1.08;;;8.10;99.90;;;;;;5021304;28;20064;-72
2021/12/17 13:53:23;;;;;;;1.13;1.02;;;8.00;99.90;;;;;;5014222;28;20056;-72
2021/12/17 13:55:50;;;;;;;1.60;1.30;;;8.00;99.90;;;;;;5035532;28;20052;-72
2021/12/17 13:58:24;;;;;;;1.65;1.10;;;8.00;99.90;;;;;;5012625;28;20636;-73
2021/12/17 14:00:56;;;;;;;1.77;1.27;;;8.00;99.90;;;;;;5032286;28;20440;-72
2021/12/17 14:03:27;;;;;;;1.37;1.20;;;8.00;99.90;;;;;;5028555;28;20029;-72
2021/12/17 14:06:09;;;;;;;2.88;1.70;;;8.00;99.90;;;;;;5026680;28;20037;-72
2021/12/17 14:08:41;;;;;;;2.58;1.50;;;8.00;99.90;;;;;;5023388;28;20592;-72
2021/12/17 14:11:25;;;;;;;3.08;1.30;;;8.00;99.90;;;;;;5023621;28;20029;-73
2021/12/17 14:13:51;;;;;;;2.28;1.50;;;8.10;99.90;;;;;;5022541;28;20034;-73
2021/12/17 14:16:33;;;;;;;5.28;1.58;;;8.10;99.90;;;;;;5022158;28;20032;-73
2021/12/17 14:19:02;;;;;;;2.72;1.80;;;8.10;99.90;;;;;;5022021;28;20025;-73
2021/12/17 14:21:30;;;;;;;2.38;1.50;;;8.10;99.90;;;;;;5025729;28;20029;-73
2021/12/17 14:23:56;;;;;;;1.98;1.60;;;8.10;99.90;;;;;;5027502;28;20435;-72
2021/12/17 14:26:30;;;;;;;1.75;1.65;;;8.10;99.90;;;;;;5022878;28;20034;-72
2021/12/17 14:29:10;;;;;;;2.22;1.83;;;8.10;99.90;;;;;;5018373;28;20036;-73
2021/12/17 14:31:36;;;;;;;1.98;1.58;;;8.10;99.90;;;;;;5019438;28;20053;-73
2021/12/17 14:34:02;;;;;;;2.88;1.88;;;8.10;99.90;;;;;;5024806;28;20036;-73
2021/12/17 14:36:38;;;;;;;2.90;1.65;;;8.10;99.90;;;;;;5036758;28;20029;-73
2021/12/17 14:39:11;;;;;;;3.28;1.95;;;8.00;99.90;;;;;;5025416;28;20084;-73
2021/12/17 14:41:49;;;;;;;3.15;1.63;;;8.00;99.90;;;;;;5032522;28;20115;-73
2021/12/17 14:47:17;;;;;;;6.35;3.85;;;7.90;99.90;;;;;;5009952;28;20026;-73
2021/12/17 15:03:07;;;;;;;3.22;2.10;;;7.80;99.90;;;;;;5015745;28;20120;-72
2021/12/17 15:05:33;;;;;;;3.17;2.13;;;7.80;99.90;;;;;;5017919;28;20033;-73
2021/12/17 15:08:00;;;;;;;3.10;2.60;;;7.90;99.90;;;;;;5020153;28;20038;-73
2021/12/17 15:10:27;;;;;;;2.92;2.25;;;7.80;99.90;;;;;;5013491;28;20026;-72
2021/12/17 15:12:56;;;;;;;2.90;2.20;;;7.90;99.90;;;;;;5023632;28;20156;-72
2021/12/17 15:15:25;;;;;;;3.45;2.50;;;7.80;99.90;;;;;;5033105;28;20191;-72
2021/12/17 15:17:52;;;;;;;5.97;2.83;;;7.80;99.90;;;;;;5015195;28;20030;-72
2021/12/17 15:20:22;;;;;;;4.05;2.65;;;7.70;99.90;;;;;;5030101;28;20143;-73
2021/12/17 15:22:48;;;;;;;3.15;2.70;;;;;;;;;;5026646;28;20032;-73
2021/12/17 15:25:14;;;;;;;3.38;2.63;;;;;;;;;;5020444;28;20041;-73
2021/12/17 15:27:41;;;;;;;5.22;3.17;;;;;;;;;;5022519;28;20037;-72
2021/12/17 15:30:09;;;;;;;5.72;3.17;;;;;;;;;;5024221;28;20029;-73
2021/12/17 15:32:35;;;;;;;3.78;3.00;;;;;;;;;;5017803;28;20073;-73
2021/12/17 15:35:01;;;;;;;5.07;3.40;;;;;;;;;;5030614;28;20026;-73
2021/12/17 15:37:27;;;;;;;5.30;3.80;;;;;;;;;;5021760;28;20037;-72
2021/12/17 15:39:53;;;;;;;4.10;3.30;;;;;;;;;;5021543;28;20025;-73
2021/12/17 15:42:19;;;;;;;4.75;3.67;;;;;;;;;;5042455;28;20025;-73
2021/12/17 15:44:45;;;;;;;4.38;3.35;;;;;;;;;;5028408;28;20033;-73
2021/12/17 15:47:11;;;;;;;5.80;3.70;;;;;;;;;;5039681;28;20203;-73
2021/12/17 15:49:37;;;;;;;6.45;3.75;;;;;;;;;;5018416;28;20037;-74